createdAt,value
2023-02-24T00:00:32.484Z,69.92
2023-02-24T00:03:06.034Z,70.10
2023-02-24T00:05:36.026Z,69.60
2023-02-24T00:08:04.091Z,69.36
2023-02-24T00:10:32.873Z,69.29
2023-02-24T00:13:02.296Z,70.19
2023-02-24T00:15:31.104Z,69.46
2023-02-24T00:17:59.448Z,69.43
2023-02-24T00:20:27.671Z,68.72
2023-02-24T00:22:55.911Z,69.86
2023-02-24T00:25:24.317Z,70.47
2023-02-24T00:27:55.711Z,71.21
2023-02-24T00:30:25.368Z,72.51
2023-02-24T00:32:53.598Z,73.42
2023-02-24T00:35:21.660Z,72.78
2023-02-24T00:37:51.347Z,71.79
2023-02-24T00:40:23.423Z,71.29
2023-02-24T00:42:54.332Z,70.17
2023-02-24T00:45:22.349Z,70.15
2023-02-24T00:47:51.823Z,69.74
2023-02-24T00:50:20.193Z,70.44
2023-02-24T00:52:50.077Z,70.02
2023-02-24T00:55:19.373Z,69.82
2023-02-24T00:57:47.443Z,69.76
2023-02-24T01:00:16.735Z,69.62
2023-02-24T01:02:46.103Z,69.62
2023-02-24T01:05:16.154Z,68.85
2023-02-24T01:07:44.253Z,68.89
2023-02-24T01:10:15.300Z,69.25
2023-02-24T01:12:51.080Z,68.86
2023-02-24T01:15:22.496Z,68.36
2023-02-24T01:17:51.123Z,68.85
2023-02-24T01:20:23.442Z,69.08
2023-02-24T01:22:53.976Z,68.49
2023-02-24T01:25:22.467Z,68.43
2023-02-24T01:27:50.724Z,68.33
2023-02-24T01:30:19.231Z,68.54
2023-02-24T01:32:48.447Z,68.85
2023-02-24T01:35:17.758Z,68.77
2023-02-24T01:37:47.346Z,70.89
2023-02-24T01:40:21.633Z,70.64
2023-02-24T01:42:50.741Z,70.77
2023-02-24T01:45:23.002Z,71.40
2023-02-24T01:47:52.676Z,72.68
2023-02-24T01:50:23.513Z,72.37
2023-02-24T01:52:56.670Z,71.58
2023-02-24T01:55:29.258Z,71.28
2023-02-24T01:57:58.891Z,69.91
2023-02-24T02:00:45.023Z,69.73
2023-02-24T02:03:24.338Z,69.78
2023-02-24T02:06:01.248Z,69.66
2023-02-24T02:08:31.452Z,70.21
2023-02-24T02:11:06.388Z,71.74
2023-02-24T02:13:36.553Z,71.63
2023-02-24T02:16:25.921Z,71.45
2023-02-24T02:19:05.528Z,71.07
2023-02-24T02:22:06.934Z,71.83
2023-02-24T02:24:53.962Z,72.41
2023-02-24T02:28:07.533Z,72.38
2023-02-24T02:31:17.189Z,72.17
2023-02-24T02:34:08.833Z,72.22
2023-02-24T02:36:50.419Z,72.80
2023-02-24T02:39:28.703Z,71.82
2023-02-24T02:42:06.943Z,71.82
2023-02-24T02:44:40.651Z,70.82
2023-02-24T02:47:14.274Z,70.47
2023-02-24T02:49:49.005Z,70.78
2023-02-24T02:52:22.661Z,70.65
2023-02-24T02:54:56.320Z,70.31
2023-02-24T02:57:27.309Z,70.55
2023-02-24T02:59:59.799Z,71.10
2023-02-24T03:02:31.456Z,71.61
2023-02-24T03:05:04.799Z,70.64
2023-02-24T03:07:40.468Z,70.08
2023-02-24T03:10:17.701Z,70.01
2023-02-24T03:12:49.079Z,69.92
2023-02-24T03:15:21.055Z,70.95
2023-02-24T03:17:56.858Z,71.01
2023-02-24T03:20:32.751Z,70.48
2023-02-24T03:23:04.801Z,70.70
2023-02-24T03:25:44.626Z,70.82
2023-02-24T03:28:20.016Z,70.50
2023-02-24T03:30:58.093Z,71.49
2023-02-24T03:33:32.640Z,72.19
2023-02-24T03:36:02.753Z,72.39
2023-02-24T03:38:33.220Z,72.57
2023-02-24T03:41:01.364Z,72.05
2023-02-24T03:43:32.982Z,71.77
2023-02-24T03:46:06.393Z,72.14
2023-02-24T03:48:38.377Z,72.12
2023-02-24T03:51:08.266Z,71.37
2023-02-24T03:53:46.874Z,70.95
2023-02-24T03:56:29.260Z,69.99
2023-02-24T03:59:12.805Z,70.54
2023-02-24T04:01:49.304Z,70.48
2023-02-24T04:04:27.485Z,70.80
2023-02-24T04:07:01.800Z,71.21
2023-02-24T04:09:36.072Z,71.36
2023-02-24T04:12:14.766Z,70.75
2023-02-24T04:14:49.468Z,70.27
2023-02-24T04:17:21.917Z,70.19
2023-02-24T04:19:55.921Z,70.12
2023-02-24T04:22:28.494Z,69.44
2023-02-24T04:25:01.111Z,69.28
2023-02-24T04:27:29.830Z,68.89
2023-02-24T04:30:01.232Z,69.13
2023-02-24T04:32:31.972Z,69.75
2023-02-24T04:35:06.648Z,70.00
2023-02-24T04:37:39.771Z,69.93
2023-02-24T04:40:12.415Z,70.52
2023-02-24T04:42:46.682Z,70.50
2023-02-24T04:45:16.553Z,70.91
2023-02-24T04:47:49.535Z,70.00
2023-02-24T04:50:24.083Z,72.38
2023-02-24T04:52:55.644Z,71.61
2023-02-24T04:55:26.577Z,72.50
2023-02-24T04:57:54.907Z,72.17
2023-02-24T05:00:26.732Z,72.41
2023-02-24T05:02:56.952Z,71.84
2023-02-24T05:05:27.759Z,72.44
2023-02-24T05:08:03.009Z,72.29
2023-02-24T05:10:35.971Z,72.16
2023-02-24T05:13:06.795Z,72.33
2023-02-24T05:15:35.441Z,72.82
2023-02-24T05:18:07.793Z,72.50
2023-02-24T05:20:57.447Z,73.25
2023-02-24T05:23:28.052Z,72.85
2023-02-24T05:25:58.045Z,72.59
2023-02-24T05:28:26.525Z,72.82
2023-02-24T05:30:56.087Z,72.93
2023-02-24T05:33:24.265Z,75.02
2023-02-24T05:35:52.411Z,77.21
2023-02-24T05:38:20.944Z,78.02
2023-02-24T05:40:50.488Z,76.15
2023-02-24T05:43:19.285Z,74.73
2023-02-24T05:45:47.731Z,74.26
2023-02-24T05:48:16.235Z,74.14
2023-02-24T05:50:52.377Z,74.53
2023-02-24T05:53:20.465Z,73.66
2023-02-24T05:55:50.009Z,74.17
2023-02-24T05:58:18.144Z,73.82
2023-02-24T06:00:46.660Z,73.85
2023-02-24T06:03:17.709Z,73.47
2023-02-24T06:05:54.282Z,73.73
2023-02-24T06:08:24.396Z,74.02
2023-02-24T06:10:54.347Z,73.71
2023-02-24T06:13:22.413Z,73.79
2023-02-24T06:15:57.287Z,74.13
2023-02-24T06:18:25.351Z,73.91
2023-02-24T06:20:53.955Z,74.24
2023-02-24T06:23:22.159Z,74.08
2023-02-24T06:25:50.433Z,73.88
2023-02-24T06:28:20.863Z,73.65
2023-02-24T06:30:52.184Z,73.28
2023-02-24T06:33:22.424Z,73.18
2023-02-24T06:35:50.437Z,72.88
2023-02-24T06:38:18.497Z,72.76
2023-02-24T06:40:47.568Z,72.48
2023-02-24T06:43:15.596Z,72.67
2023-02-24T06:45:45.459Z,73.26
2023-02-24T06:48:13.709Z,73.72
2023-02-24T06:50:42.277Z,73.96
2023-02-24T06:53:16.976Z,73.44
2023-02-24T06:55:46.595Z,73.38
2023-02-24T06:58:18.134Z,72.92
2023-02-24T07:00:56.893Z,72.52
2023-02-24T07:03:39.172Z,73.08
2023-02-24T07:06:24.500Z,73.01
2023-02-24T07:08:53.218Z,73.40
2023-02-24T07:11:22.430Z,73.43
2023-02-24T07:13:51.141Z,73.03
2023-02-24T07:16:25.330Z,73.38
2023-02-24T07:18:56.760Z,73.73
2023-02-24T07:21:26.595Z,73.06
2023-02-24T07:23:58.806Z,72.47
2023-02-24T07:26:30.426Z,72.64
2023-02-24T07:28:58.587Z,72.63
2023-02-24T07:31:28.234Z,72.53
2023-02-24T07:33:57.733Z,71.77
2023-02-24T07:36:30.373Z,71.95
2023-02-24T07:39:00.474Z,72.64
2023-02-24T07:41:30.495Z,72.49
2023-02-24T07:44:03.304Z,71.90
2023-02-24T07:46:33.566Z,71.77
2023-02-24T07:49:03.407Z,71.98
2023-02-24T07:51:32.102Z,71.48
2023-02-24T07:54:02.822Z,72.09
2023-02-24T07:56:32.974Z,71.42
2023-02-24T07:59:02.893Z,71.34
2023-02-24T08:01:39.049Z,70.45
2023-02-24T08:04:09.295Z,70.43
2023-02-24T08:06:46.131Z,71.00
2023-02-24T08:09:20.734Z,71.08
2023-02-24T08:11:52.418Z,71.27
2023-02-24T08:14:23.674Z,70.50
2023-02-24T08:16:59.491Z,70.28
2023-02-24T08:19:33.215Z,69.51
2023-02-24T08:22:19.612Z,69.05
2023-02-24T08:24:50.264Z,68.18
2023-02-24T08:27:20.317Z,68.12
2023-02-24T08:30:00.244Z,67.25
2023-02-24T08:32:35.912Z,67.31
2023-02-24T08:35:14.583Z,67.39
2023-02-24T08:37:47.259Z,68.61
2023-02-24T08:40:38.264Z,69.13
2023-02-24T08:43:25.795Z,68.67
2023-02-24T08:45:56.812Z,67.72
2023-02-24T08:48:32.437Z,67.76
2023-02-24T08:51:04.717Z,67.48
2023-02-24T08:53:33.123Z,67.60
2023-02-24T08:56:09.660Z,66.58
2023-02-24T08:58:41.131Z,65.50
2023-02-24T09:01:19.051Z,66.94
2023-02-24T09:03:50.417Z,67.29
2023-02-24T09:06:25.507Z,67.58
2023-02-24T09:09:13.025Z,66.94
2023-02-24T09:11:44.257Z,66.70
2023-02-24T09:14:32.206Z,67.53
2023-02-24T09:17:04.210Z,68.12
2023-02-24T09:20:01.595Z,68.24
2023-02-24T09:22:57.344Z,67.67
2023-02-24T09:25:40.703Z,66.51
2023-02-24T09:28:17.455Z,66.30
2023-02-24T09:30:57.564Z,66.31
2023-02-24T09:33:27.506Z,66.79
2023-02-24T09:36:10.004Z,66.26
2023-02-24T09:38:57.696Z,65.98
2023-02-24T09:41:53.786Z,66.63
2023-02-24T09:44:28.314Z,67.98
2023-02-24T09:47:08.938Z,67.70
2023-02-24T09:49:47.887Z,66.18
2023-02-24T09:52:19.768Z,65.87
2023-02-24T09:55:07.533Z,65.42
2023-02-24T09:58:04.701Z,65.13
2023-02-24T10:00:38.572Z,65.66
2023-02-24T10:03:20.597Z,65.55
2023-02-24T10:05:59.132Z,64.58
2023-02-24T10:08:38.390Z,64.58
2023-02-24T10:11:09.957Z,64.25
2023-02-24T10:13:42.674Z,64.61
2023-02-24T10:16:15.639Z,63.45
2023-02-24T10:18:48.650Z,63.96
2023-02-24T10:21:34.929Z,63.94
2023-02-24T10:24:16.167Z,63.15
2023-02-24T10:26:59.992Z,63.65
2023-02-24T10:29:43.366Z,62.46
2023-02-24T10:32:24.103Z,63.67
2023-02-24T10:34:52.970Z,63.78
2023-02-24T10:37:28.701Z,62.56
2023-02-24T10:40:00.461Z,63.36
2023-02-24T10:42:32.013Z,62.28
2023-02-24T10:45:18.571Z,63.21
2023-02-24T10:47:56.868Z,61.76
2023-02-24T10:50:32.012Z,62.51
2023-02-24T10:53:26.084Z,62.01
2023-02-24T10:56:15.155Z,60.53
2023-02-24T10:58:56.873Z,59.56
2023-02-24T11:01:45.391Z,59.04
2023-02-24T11:04:33.507Z,60.37
2023-02-24T11:07:09.901Z,59.38
2023-02-24T11:09:44.189Z,59.85
2023-02-24T11:12:38.569Z,59.84
2023-02-24T11:15:35.857Z,59.34
2023-02-24T11:18:04.494Z,59.61
2023-02-24T11:20:48.604Z,59.96
2023-02-24T11:23:21.610Z,59.09
2023-02-24T11:25:53.547Z,58.66
2023-02-24T11:28:39.321Z,58.06
2023-02-24T11:31:22.547Z,59.33
2023-02-24T11:34:02.004Z,58.25
2023-02-24T11:36:43.455Z,59.82
2023-02-24T11:39:42.911Z,59.16
2023-02-24T11:42:16.287Z,56.25
2023-02-24T11:44:53.581Z,55.84
2023-02-24T11:47:28.608Z,55.79
2023-02-24T11:50:17.839Z,58.05
2023-02-24T11:52:50.338Z,56.75
2023-02-24T11:55:28.310Z,56.28
2023-02-24T11:58:01.537Z,55.79
2023-02-24T12:00:34.421Z,55.86
2023-02-24T12:03:09.608Z,55.69
2023-02-24T12:05:42.206Z,55.58
2023-02-24T12:08:20.137Z,55.77
2023-02-24T12:10:55.185Z,56.07
2023-02-24T12:13:33.984Z,55.48
2023-02-24T12:16:08.401Z,55.41
2023-02-24T12:18:41.006Z,55.29
2023-02-24T12:21:14.821Z,53.91
2023-02-24T12:23:46.076Z,52.73
2023-02-24T12:26:23.388Z,53.69
2023-02-24T12:29:19.005Z,54.45
2023-02-24T12:31:57.299Z,53.64
2023-02-24T12:34:39.793Z,53.55
2023-02-24T12:37:36.009Z,54.96
2023-02-24T12:40:16.664Z,55.29
2023-02-24T12:42:52.671Z,54.06
2023-02-24T12:45:28.879Z,52.84
2023-02-24T12:48:08.254Z,53.55
2023-02-24T12:50:49.994Z,53.79
2023-02-24T12:53:24.621Z,52.00
2023-02-24T12:56:04.119Z,49.91
2023-02-24T12:58:34.510Z,51.15
2023-02-24T13:01:13.073Z,49.82
2023-02-24T13:03:57.753Z,50.74
2023-02-24T13:06:35.748Z,50.08
2023-02-24T13:09:13.087Z,50.66
2023-02-24T13:11:51.103Z,50.76
2023-02-24T13:14:27.496Z,51.02
2023-02-24T13:17:06.274Z,49.24
2023-02-24T13:19:36.976Z,51.99
2023-02-24T13:22:08.760Z,48.47
2023-02-24T13:24:37.582Z,51.82
2023-02-24T13:27:07.806Z,49.75
2023-02-24T13:29:45.727Z,50.74
2023-02-24T13:32:31.712Z,50.81
2023-02-24T13:35:03.777Z,49.93
2023-02-24T13:37:35.683Z,48.53
2023-02-24T13:40:22.968Z,48.93
2023-02-24T13:43:00.186Z,50.61
2023-02-24T13:45:30.090Z,48.44
2023-02-24T13:48:23.860Z,47.69
2023-02-24T13:51:10.696Z,47.96
2023-02-24T13:54:00.664Z,45.81
2023-02-24T13:56:41.503Z,46.21
2023-02-24T13:59:21.018Z,45.24
2023-02-24T14:01:52.343Z,44.68
2023-02-24T14:04:24.555Z,43.95
2023-02-24T14:06:56.780Z,45.24
2023-02-24T14:09:28.870Z,45.89
2023-02-24T14:12:01.557Z,45.59
2023-02-24T14:14:31.556Z,44.34
2023-02-24T14:16:59.730Z,44.51
2023-02-24T14:19:28.237Z,44.48
2023-02-24T14:21:59.499Z,45.03
2023-02-24T14:24:29.027Z,43.18
2023-02-24T14:26:59.778Z,44.02
2023-02-24T14:29:31.985Z,44.43
2023-02-24T14:32:01.229Z,44.93
2023-02-24T14:34:34.009Z,44.56
2023-02-24T14:37:05.930Z,44.05
2023-02-24T14:39:35.314Z,43.07
2023-02-24T14:42:14.348Z,43.09
2023-02-24T14:44:44.028Z,42.04
2023-02-24T14:47:15.432Z,42.06
2023-02-24T14:49:52.632Z,41.48
2023-02-24T14:52:29.110Z,42.48
2023-02-24T14:55:00.943Z,41.43
2023-02-24T14:57:32.963Z,42.63
2023-02-24T15:00:10.844Z,42.09
2023-02-24T15:02:44.621Z,41.42
2023-02-24T15:05:13.250Z,41.54
2023-02-24T15:07:46.843Z,41.31
2023-02-24T15:10:22.277Z,41.77
2023-02-24T15:12:55.141Z,40.77
2023-02-24T15:15:27.025Z,40.83
2023-02-24T15:17:59.054Z,40.24
2023-02-24T15:20:30.234Z,40.80
2023-02-24T15:23:00.557Z,39.91
2023-02-24T15:25:42.483Z,40.75
2023-02-24T15:28:25.537Z,41.37
2023-02-24T15:31:02.415Z,40.85
2023-02-24T15:33:36.384Z,39.99
2023-02-24T15:36:11.283Z,39.25
2023-02-24T15:38:44.062Z,40.23
2023-02-24T15:41:13.618Z,40.16
2023-02-24T15:43:48.497Z,41.14
2023-02-24T15:46:23.264Z,40.03
2023-02-24T15:48:53.183Z,40.05
2023-02-24T15:51:33.247Z,39.97
2023-02-24T15:54:04.717Z,39.97
2023-02-24T15:56:34.852Z,39.94
2023-02-24T15:59:03.341Z,39.37
2023-02-24T16:01:32.651Z,39.79
2023-02-24T16:04:01.456Z,39.28
2023-02-24T16:06:30.267Z,40.55
2023-02-24T16:08:59.351Z,38.83
2023-02-24T16:11:35.247Z,38.62
2023-02-24T16:14:03.349Z,39.73
2023-02-24T16:16:33.392Z,39.94
2023-02-24T16:19:01.631Z,39.54
2023-02-24T16:21:30.270Z,39.24
2023-02-24T16:23:58.324Z,39.92
2023-02-24T16:26:26.694Z,39.77
2023-02-24T16:28:58.102Z,38.07
2023-02-24T16:31:28.268Z,40.72
2023-02-24T16:33:57.471Z,39.25
2023-02-24T16:36:28.299Z,40.92
2023-02-24T16:38:56.940Z,40.20
2023-02-24T16:41:27.184Z,39.87
2023-02-24T16:43:56.587Z,40.59
2023-02-24T16:46:25.090Z,40.39
2023-02-24T16:48:54.457Z,39.42
2023-02-24T16:51:24.854Z,40.44
2023-02-24T16:53:53.157Z,40.25
2023-02-24T16:56:21.707Z,39.87
2023-02-24T16:58:50.688Z,40.02
2023-02-24T17:01:22.800Z,39.91
2023-02-24T17:03:53.924Z,40.15
2023-02-24T17:06:23.712Z,40.93
2023-02-24T17:08:52.331Z,40.59
2023-02-24T17:11:22.469Z,40.29
2023-02-24T17:13:50.555Z,41.09
2023-02-24T17:16:18.710Z,40.43
2023-02-24T17:18:48.172Z,40.33
2023-02-24T17:21:18.058Z,40.61
2023-02-24T17:23:46.204Z,41.01
2023-02-24T17:26:16.170Z,41.91
2023-02-24T17:28:44.487Z,42.33
2023-02-24T17:31:12.764Z,43.15
2023-02-24T17:33:41.650Z,44.03
2023-02-24T17:36:13.649Z,44.21
2023-02-24T17:38:41.673Z,44.89
2023-02-24T17:41:10.624Z,46.22
2023-02-24T17:43:38.850Z,47.51
2023-02-24T17:46:07.549Z,47.92
2023-02-24T17:48:36.332Z,48.64
2023-02-24T17:51:04.483Z,49.78
2023-02-24T17:53:33.941Z,51.26
2023-02-24T17:56:05.173Z,51.69
2023-02-24T17:58:34.183Z,51.54
2023-02-24T18:01:03.139Z,52.36
2023-02-24T18:03:32.041Z,52.87
2023-02-24T18:06:01.234Z,53.32
2023-02-24T18:08:30.563Z,52.96
2023-02-24T18:11:00.960Z,54.73
2023-02-24T18:13:29.436Z,54.08
2023-02-24T18:15:57.881Z,54.11
2023-02-24T18:18:30.410Z,53.51
2023-02-24T18:21:02.853Z,55.66
2023-02-24T18:23:31.096Z,54.67
2023-02-24T18:26:03.793Z,55.54
2023-02-24T18:28:35.396Z,56.18
2023-02-24T18:31:10.438Z,56.78
2023-02-24T18:33:38.980Z,57.14
2023-02-24T18:36:08.341Z,57.11
2023-02-24T18:38:36.685Z,57.68
2023-02-24T18:41:08.615Z,56.88
2023-02-24T18:43:37.527Z,59.67
2023-02-24T18:46:07.598Z,58.80
2023-02-24T18:48:36.321Z,59.10
2023-02-24T18:51:08.113Z,59.76
2023-02-24T18:53:37.015Z,60.51
2023-02-24T18:56:08.537Z,60.27
2023-02-24T18:58:38.648Z,61.50
2023-02-24T19:01:12.489Z,61.11
2023-02-24T19:03:41.170Z,61.20
2023-02-24T19:06:12.941Z,60.71
2023-02-24T19:08:42.846Z,62.14
2023-02-24T19:11:15.498Z,62.13
2023-02-24T19:13:44.081Z,62.73
2023-02-24T19:16:12.707Z,62.10
2023-02-24T19:18:41.022Z,62.54
2023-02-24T19:21:10.573Z,62.23
2023-02-24T19:23:39.396Z,62.08
2023-02-24T19:26:08.241Z,62.78
2023-02-24T19:28:37.624Z,62.06
2023-02-24T19:31:06.109Z,61.80
2023-02-24T19:33:34.192Z,63.16
2023-02-24T19:36:02.324Z,63.29
2023-02-24T19:38:30.465Z,63.14
2023-02-24T19:40:59.452Z,62.87
2023-02-24T19:43:27.815Z,63.00
2023-02-24T19:45:57.557Z,63.03
2023-02-24T19:48:25.720Z,63.12
2023-02-24T19:50:53.695Z,62.15
2023-02-24T19:53:21.744Z,63.00
2023-02-24T19:55:50.725Z,62.73
2023-02-24T19:58:18.756Z,62.93
2023-02-24T20:00:48.163Z,62.14
2023-02-24T20:03:20.895Z,61.33
2023-02-24T20:05:49.012Z,61.17
2023-02-24T20:08:17.293Z,62.17
2023-02-24T20:10:45.302Z,62.28
2023-02-24T20:13:14.371Z,62.08
2023-02-24T20:15:42.544Z,62.19
2023-02-24T20:18:10.851Z,61.55
2023-02-24T20:20:40.314Z,62.04
2023-02-24T20:23:08.657Z,62.34
2023-02-24T20:25:36.783Z,62.49
2023-02-24T20:28:04.907Z,63.00
2023-02-24T20:30:33.033Z,62.52
2023-02-24T20:33:01.141Z,62.72
2023-02-24T20:35:29.329Z,63.22
2023-02-24T20:37:58.926Z,63.98
2023-02-24T20:40:27.184Z,63.09
2023-02-24T20:42:55.251Z,63.75
2023-02-24T20:45:23.333Z,63.65
2023-02-24T20:47:51.384Z,64.34
2023-02-24T20:50:22.668Z,64.00
2023-02-24T20:52:50.809Z,63.82
2023-02-24T20:55:20.539Z,64.73
2023-02-24T20:57:49.138Z,64.74
2023-02-24T21:00:18.171Z,65.29
2023-02-24T21:02:49.389Z,64.61
2023-02-24T21:05:20.721Z,64.97
2023-02-24T21:07:50.070Z,65.29
2023-02-24T21:10:22.565Z,65.14
2023-02-24T21:12:50.577Z,65.03
2023-02-24T21:15:18.960Z,65.04
2023-02-24T21:17:47.072Z,64.41
2023-02-24T21:20:15.771Z,64.68
2023-02-24T21:22:43.820Z,64.42
2023-02-24T21:25:12.219Z,64.81
2023-02-24T21:27:41.644Z,65.43
2023-02-24T21:30:11.018Z,65.52
2023-02-24T21:32:39.210Z,65.51
2023-02-24T21:35:07.546Z,64.86
2023-02-24T21:37:41.736Z,64.83
2023-02-24T21:40:12.294Z,65.13
2023-02-24T21:42:44.658Z,64.56
2023-02-24T21:45:14.005Z,64.32
2023-02-24T21:47:44.217Z,65.43
2023-02-24T21:50:16.065Z,65.20
2023-02-24T21:52:47.812Z,65.62
2023-02-24T21:55:17.243Z,65.61
2023-02-24T21:57:47.984Z,66.08
2023-02-24T22:00:20.837Z,65.93
2023-02-24T22:02:50.945Z,66.06
2023-02-24T22:05:20.415Z,66.27
2023-02-24T22:07:49.910Z,65.84
2023-02-24T22:10:20.464Z,65.58
2023-02-24T22:12:50.692Z,65.79
2023-02-24T22:15:18.942Z,66.56
2023-02-24T22:17:47.049Z,66.96
2023-02-24T22:20:15.770Z,66.85
2023-02-24T22:22:44.244Z,66.80
2023-02-24T22:25:12.357Z,66.71
2023-02-24T22:27:40.795Z,67.03
2023-02-24T22:30:19.810Z,66.85
2023-02-24T22:32:48.204Z,67.41
2023-02-24T22:35:16.411Z,66.92
2023-02-24T22:37:44.512Z,67.31
2023-02-24T22:40:13.411Z,66.96
2023-02-24T22:42:41.737Z,66.73
2023-02-24T22:45:10.988Z,67.04
2023-02-24T22:47:40.509Z,66.61
2023-02-24T22:50:10.130Z,66.56
2023-02-24T22:52:38.445Z,66.62
2023-02-24T22:55:07.111Z,67.33
2023-02-24T22:57:35.351Z,67.15
2023-02-24T23:00:09.579Z,67.02
2023-02-24T23:02:38.459Z,66.92
2023-02-24T23:05:08.808Z,66.81
2023-02-24T23:07:37.379Z,67.15
2023-02-24T23:10:06.794Z,67.25
2023-02-24T23:12:35.829Z,66.94
2023-02-24T23:15:04.030Z,67.10
2023-02-24T23:17:35.042Z,66.83
2023-02-24T23:20:12.768Z,67.37
2023-02-24T23:22:43.164Z,66.66
2023-02-24T23:25:12.348Z,66.79
2023-02-24T23:27:40.713Z,67.06
2023-02-24T23:30:12.377Z,66.65
2023-02-24T23:32:42.376Z,66.67
2023-02-24T23:35:11.526Z,66.97
2023-02-24T23:37:44.302Z,66.89
2023-02-24T23:40:14.804Z,67.45
2023-02-24T23:42:46.410Z,67.47
2023-02-24T23:45:14.375Z,67.25
2023-02-24T23:47:43.247Z,67.44
2023-02-24T23:50:13.648Z,67.69
2023-02-24T23:52:44.209Z,68.39
2023-02-24T23:55:12.750Z,68.63
2023-02-24T23:57:41.160Z,69.12
